Time;durP1;ratioP1;P1;durP2;ratioP2;P2;SDS_P1;SDS_P2;PMS_P1;PMS_P2;Temp;Humidity;BMP_temperature;BMP_pressure;BME280_temperature;BME280_humidity;BME280_pressure;Samples;Min_cycle;Max_cycle;Signal;HPM_P1;HPM_P2
2023/11/09 00:01:10;;;;;;;4.20;3.45;;;;;;;;;;5032822;28;20209;-88
2023/11/09 00:03:36;;;;;;;3.38;2.95;;;6.80;99.90;;;;;;5048057;28;20463;-88
2023/11/09 00:06:03;;;;;;;3.20;2.90;;;6.30;99.90;;;;;;5055217;28;20198;-88
2023/11/09 00:08:32;;;;;;;4.65;3.40;;;;;;;;;;5050060;28;20191;-88
2023/11/09 00:10:58;;;;;;;6.55;3.45;;;;;;;;;;5052351;28;20243;-88
2023/11/09 00:13:24;;;;;;;3.50;3.10;;;6.70;99.90;;;;;;5053279;28;20190;-88
2023/11/09 00:15:50;;;;;;;3.50;3.17;;;;;;;;;;5054635;28;20197;-89
2023/11/09 00:18:21;;;;;;;3.10;2.80;;;6.50;99.90;;;;;;5054875;28;20201;-88
2023/11/09 00:20:53;;;;;;;3.25;2.95;;;7.10;99.90;;;;;;5042377;28;20452;-88
2023/11/09 00:23:19;;;;;;;3.25;2.60;;;6.70;99.90;;;;;;5028138;28;20213;-88
2023/11/09 00:25:47;;;;;;;3.17;2.88;;;8.80;99.90;;;;;;5030542;28;20182;-88
2023/11/09 00:28:16;;;;;;;4.32;3.25;;;;;;;;;;5029814;28;20197;-88
2023/11/09 00:30:42;;;;;;;3.83;3.28;;;6.60;99.90;;;;;;5026013;28;20198;-88
2023/11/09 00:33:07;;;;;;;4.20;2.92;;;5.60;99.90;;;;;;5030540;28;20694;-88
2023/11/09 00:35:33;;;;;;;6.13;2.60;;;7.90;99.90;;;;;;5030827;28;20296;-88
2023/11/09 00:38:02;;;;;;;3.77;3.30;;;;;;;;;;5028629;28;20452;-88
2023/11/09 00:40:28;;;;;;;3.90;3.00;;;;;;;;;;5026926;28;20828;-88
2023/11/09 00:42:54;;;;;;;3.53;3.00;;;;;;;;;;5027681;28;20564;-88
2023/11/09 00:45:20;;;;;;;3.80;2.72;;;;;;;;;;5032424;28;20190;-88
2023/11/09 00:47:46;;;;;;;3.70;3.38;;;;;;;;;;5048309;28;20670;-88
2023/11/09 00:50:12;;;;;;;3.75;2.72;;;6.70;99.90;;;;;;5033689;28;20214;-88
2023/11/09 00:52:39;;;;;;;3.58;2.65;;;6.80;99.90;;;;;;5030644;28;20178;-89
2023/11/09 00:55:05;;;;;;;3.20;2.90;;;8.00;99.90;;;;;;5031687;28;20184;-88
2023/11/09 00:57:32;;;;;;;3.60;3.13;;;7.00;99.90;;;;;;5033524;28;20277;-88
2023/11/09 00:59:58;;;;;;;4.18;3.88;;;6.60;99.90;;;;;;5033327;28;20233;-88
2023/11/09 01:02:24;;;;;;;3.95;2.95;;;7.10;99.90;;;;;;5030731;28;20575;-88
2023/11/09 01:04:50;;;;;;;3.23;2.83;;;6.80;99.90;;;;;;5031280;28;20202;-88
2023/11/09 01:07:16;;;;;;;3.10;2.80;;;6.80;99.90;;;;;;5028346;28;20237;-88
2023/11/09 01:09:43;;;;;;;2.80;2.60;;;6.60;99.90;;;;;;5033233;28;20177;-88
2023/11/09 01:12:08;;;;;;;4.93;3.00;;;6.60;99.90;;;;;;5032221;28;20246;-88
2023/11/09 01:14:34;;;;;;;3.10;2.80;;;6.90;99.90;;;;;;5031021;28;20297;-88
2023/11/09 01:17:00;;;;;;;5.83;2.97;;;6.80;99.90;;;;;;5032608;28;20273;-88
2023/11/09 01:19:26;;;;;;;2.70;2.50;;;6.80;99.90;;;;;;5030285;28;20209;-88
2023/11/09 01:21:52;;;;;;;7.20;3.90;;;6.50;99.90;;;;;;5030679;28;20190;-88
2023/11/09 01:24:18;;;;;;;3.20;2.63;;;6.90;99.90;;;;;;5027669;28;20455;-88
2023/11/09 01:26:44;;;;;;;2.87;2.67;;;6.60;99.90;;;;;;5028599;28;20486;-88
2023/11/09 01:29:11;;;;;;;3.10;2.80;;;6.50;99.90;;;;;;5030004;28;20179;-88
2023/11/09 01:31:37;;;;;;;3.45;2.80;;;6.70;99.90;;;;;;5030892;28;20189;-88
2023/11/09 01:34:03;;;;;;;3.47;2.97;;;6.90;99.90;;;;;;5031134;28;20213;-88
2023/11/09 01:36:29;;;;;;;3.30;2.57;;;6.30;99.90;;;;;;5027170;28;20441;-88
2023/11/09 01:38:54;;;;;;;2.60;2.35;;;6.90;99.90;;;;;;5032220;28;20436;-88
2023/11/09 01:41:20;;;;;;;3.60;2.90;;;7.00;99.90;;;;;;5030428;28;20276;-88
2023/11/09 01:44:00;;;;;;;3.03;2.60;;;6.50;99.90;;;;;;5028967;28;20721;-88
2023/11/09 01:46:26;;;;;;;4.28;2.85;;;6.60;99.90;;;;;;5030382;28;20189;-88
2023/11/09 01:48:54;;;;;;;3.17;2.97;;;6.60;99.90;;;;;;5016756;28;20198;-88
2023/11/09 01:51:20;;;;;;;3.08;2.53;;;6.30;99.90;;;;;;5032893;28;20540;-88
2023/11/09 01:53:47;;;;;;;3.08;2.78;;;6.50;99.90;;;;;;5034477;28;20772;-88
2023/11/09 01:56:14;;;;;;;3.72;2.83;;;6.50;99.90;;;;;;5016396;28;20244;-88
2023/11/09 01:58:42;;;;;;;3.35;2.58;;;6.50;99.90;;;;;;5029630;28;20269;-88
2023/11/09 02:01:11;;;;;;;2.35;2.15;;;6.90;99.90;;;;;;5029441;28;20247;-88
2023/11/09 02:03:38;;;;;;;2.72;2.53;;;6.60;99.90;;;;;;5030502;28;20224;-88
2023/11/09 02:06:05;;;;;;;3.25;2.95;;;7.00;99.90;;;;;;5029890;28;20225;-88
2023/11/09 02:08:30;;;;;;;2.78;2.17;;;6.40;99.90;;;;;;5030844;28;20206;-88
2023/11/09 02:10:56;;;;;;;2.40;2.17;;;6.30;99.90;;;;;;5029874;28;20634;-88
2023/11/09 02:13:21;;;;;;;3.40;2.50;;;6.20;99.90;;;;;;5045408;28;20219;-88
2023/11/09 02:15:47;;;;;;;2.57;2.30;;;6.40;99.90;;;;;;5054368;28;20182;-88
2023/11/09 02:18:13;;;;;;;2.37;2.17;;;6.40;99.90;;;;;;5049096;28;20596;-88
2023/11/09 02:20:39;;;;;;;3.77;2.60;;;6.50;99.90;;;;;;5031896;28;20194;-88
2023/11/09 02:23:08;;;;;;;2.55;2.35;;;6.40;99.90;;;;;;5031303;28;20272;-88
2023/11/09 02:25:35;;;;;;;2.92;2.45;;;6.80;99.90;;;;;;5035710;28;20272;-88
2023/11/09 02:28:01;;;;;;;2.70;2.35;;;6.10;99.90;;;;;;5048799;28;20187;-88
2023/11/09 02:30:28;;;;;;;2.78;2.58;;;6.60;99.90;;;;;;5033683;28;20193;-88
2023/11/09 02:32:53;;;;;;;2.20;2.10;;;6.40;99.90;;;;;;5031751;28;20206;-88
2023/11/09 02:35:19;;;;;;;3.40;2.60;;;6.80;99.90;;;;;;5031343;28;20194;-88
2023/11/09 02:37:45;;;;;;;2.40;2.20;;;6.60;99.90;;;;;;5023552;28;20205;-88
2023/11/09 02:40:11;;;;;;;2.30;2.10;;;7.00;99.90;;;;;;5027568;28;20186;-88
2023/11/09 02:42:36;;;;;;;4.28;2.05;;;6.60;99.90;;;;;;5027172;28;20190;-88
2023/11/09 02:45:02;;;;;;;2.30;2.10;;;6.80;99.90;;;;;;5028735;28;20197;-88
2023/11/09 02:47:28;;;;;;;2.33;2.13;;;6.70;99.90;;;;;;5032880;28;20183;-88
2023/11/09 02:49:53;;;;;;;3.67;2.17;;;7.00;99.90;;;;;;5037611;28;20215;-88
2023/11/09 02:52:19;;;;;;;3.60;2.37;;;6.70;99.90;;;;;;5047180;28;20209;-88
2023/11/09 02:54:45;;;;;;;2.30;2.10;;;6.70;99.90;;;;;;5028342;28;20197;-88
2023/11/09 02:57:11;;;;;;;2.17;1.70;;;6.90;99.90;;;;;;5024085;28;20441;-88
2023/11/09 02:59:38;;;;;;;3.47;2.30;;;7.20;99.90;;;;;;5027421;28;20273;-88
2023/11/09 03:02:06;;;;;;;2.05;1.73;;;7.30;99.90;;;;;;5029255;28;20628;-88
2023/11/09 03:04:32;;;;;;;2.17;2.00;;;7.00;99.90;;;;;;5029768;28;20228;-88
2023/11/09 03:06:58;;;;;;;4.05;1.80;;;7.10;99.90;;;;;;5026990;28;20259;-88
2023/11/09 03:09:24;;;;;;;2.10;1.83;;;7.00;99.90;;;;;;5036150;28;20178;-88
2023/11/09 03:11:49;;;;;;;2.33;1.73;;;7.30;99.90;;;;;;5042811;28;20186;-88
2023/11/09 03:14:15;;;;;;;3.23;2.53;;;;;;;;;;5044663;28;20217;-88
2023/11/09 03:16:42;;;;;;;3.20;2.10;;;7.10;99.90;;;;;;5029492;28;20416;-89
2023/11/09 03:19:07;;;;;;;2.22;1.90;;;7.30;99.90;;;;;;5028632;28;20473;-88
2023/11/09 03:21:33;;;;;;;2.57;2.00;;;9.30;99.90;;;;;;5029688;28;20179;-88
2023/11/09 03:23:59;;;;;;;1.90;1.80;;;;;;;;;;5029172;28;20222;-88
2023/11/09 03:26:25;;;;;;;2.53;2.33;;;;;;;;;;5028411;28;20254;-88
2023/11/09 03:28:51;;;;;;;2.10;1.90;;;7.10;99.90;;;;;;5028953;28;20308;-88
2023/11/09 03:31:16;;;;;;;2.13;1.97;;;6.60;99.90;;;;;;5029857;28;20457;-88
2023/11/09 03:33:42;;;;;;;2.10;2.00;;;8.60;99.90;;;;;;5028414;28;20317;-88
2023/11/09 03:36:08;;;;;;;1.73;1.63;;;6.20;99.90;;;;;;5027266;28;20186;-88
2023/11/09 03:38:34;;;;;;;1.73;1.63;;;;;;;;;;5028173;28;20244;-88
2023/11/09 03:41:00;;;;;;;2.47;2.22;;;6.90;99.90;;;;;;5029129;28;20190;-89
2023/11/09 03:43:26;;;;;;;2.27;2.07;;;;;;;;;;5028506;28;20273;-88
2023/11/09 03:45:51;;;;;;;2.20;1.90;;;7.30;99.90;;;;;;5029713;28;20228;-88
2023/11/09 03:48:19;;;;;;;2.13;1.93;;;;;;;;;;5044405;28;20448;-88
2023/11/09 03:50:44;;;;;;;2.13;1.92;;;6.90;99.90;;;;;;5046253;28;20182;-88
2023/11/09 03:53:10;;;;;;;2.13;1.93;;;;;;;;;;5034418;28;20294;-88
2023/11/09 03:55:36;;;;;;;2.27;2.07;;;;;;;;;;5033242;28;20182;-88
2023/11/09 03:58:03;;;;;;;2.50;2.30;;;7.10;99.90;;;;;;5032686;28;20441;-88
2023/11/09 04:00:29;;;;;;;2.90;1.70;;;6.50;99.90;;;;;;5032227;28;20240;-88
2023/11/09 04:02:54;;;;;;;2.10;2.00;;;6.80;99.90;;;;;;5031882;28;20241;-88
2023/11/09 04:05:22;;;;;;;3.70;1.97;;;8.80;99.90;;;;;;5029994;28;20836;-88
2023/11/09 04:07:48;;;;;;;3.40;2.40;;;;;;;;;;5029261;28;20186;-88
2023/11/09 04:10:16;;;;;;;2.50;2.15;;;6.90;99.90;;;;;;5047344;28;20182;-88
2023/11/09 04:12:43;;;;;;;4.05;2.25;;;;;;;;;;5040098;28;20194;-88
2023/11/09 04:15:09;;;;;;;2.53;2.08;;;6.70;99.90;;;;;;5042157;28;20186;-88
2023/11/09 04:17:35;;;;;;;2.47;2.22;;;7.00;99.90;;;;;;5037204;28;20182;-88
2023/11/09 04:20:01;;;;;;;2.83;2.63;;;8.30;99.90;;;;;;5019327;28;20247;-88
2023/11/09 04:22:27;;;;;;;3.08;2.30;;;;;;;;;;5030501;28;20444;-89
2023/11/09 04:24:53;;;;;;;4.40;2.20;;;;;;;;;;5036464;28;20221;-88
2023/11/09 04:27:21;;;;;;;2.40;1.88;;;;;;;;;;5042787;28;20182;-85
2023/11/09 04:29:47;;;;;;;2.50;2.30;;;;;;;;;;5047165;28;20183;-88
2023/11/09 04:32:13;;;;;;;1.88;1.75;;;6.60;99.90;;;;;;5034389;28;20196;-92
2023/11/09 04:34:49;;;;;;;2.35;1.95;;;6.80;99.90;;;;;;5046072;28;20309;-89
2023/11/09 04:37:14;;;;;;;2.85;2.13;;;6.80;99.90;;;;;;5041051;28;20189;-89
2023/11/09 04:39:46;;;;;;;3.50;2.10;;;6.50;99.90;;;;;;5032533;28;20194;-90
2023/11/09 04:42:18;;;;;;;2.50;1.92;;;8.50;99.90;;;;;;5030854;28;20651;-89
2023/11/09 04:44:46;;;;;;;3.67;2.75;;;6.30;99.90;;;;;;5032548;28;20213;-89
2023/11/09 04:47:13;;;;;;;2.58;2.10;;;6.60;99.90;;;;;;5032172;28;20178;-90
2023/11/09 04:49:45;;;;;;;3.17;2.15;;;6.50;99.90;;;;;;5048809;28;20186;-90
2023/11/09 04:52:16;;;;;;;2.40;2.15;;;6.60;99.90;;;;;;5032639;28;20205;-87
2023/11/09 04:54:45;;;;;;;4.55;2.17;;;6.60;99.90;;;;;;5031193;28;20202;-87
2023/11/09 05:07:52;;;;;;;2.70;2.50;;;6.70;99.90;;;;;;5032308;28;20227;-88
2023/11/09 05:10:18;;;;;;;3.13;2.87;;;7.00;99.90;;;;;;5033060;28;20198;-87
2023/11/09 05:12:43;;;;;;;2.97;2.60;;;6.80;99.90;;;;;;5040961;28;20191;-88
2023/11/09 05:15:10;;;;;;;4.00;2.90;;;6.50;99.90;;;;;;5057139;28;20202;-87
2023/11/09 05:17:36;;;;;;;3.05;2.75;;;6.90;99.90;;;;;;5031615;28;20229;-88
2023/11/09 05:20:05;;;;;;;4.70;2.87;;;6.70;99.90;;;;;;5033292;28;20659;-88
2023/11/09 05:22:30;;;;;;;3.08;2.75;;;7.00;99.90;;;;;;5032545;28;20819;-89
2023/11/09 05:24:56;;;;;;;3.30;2.83;;;7.20;99.90;;;;;;5046498;28;20290;-88
2023/11/09 05:27:22;;;;;;;2.93;2.73;;;7.30;99.90;;;;;;5041555;28;20201;-87
2023/11/09 05:29:48;;;;;;;3.65;3.10;;;7.00;99.90;;;;;;5042609;28;20277;-88
2023/11/09 05:32:14;;;;;;;3.53;3.20;;;7.00;99.90;;;;;;5032834;28;20202;-89
2023/11/09 05:34:40;;;;;;;5.07;3.33;;;7.10;99.90;;;;;;5032797;28;20211;-87
2023/11/09 05:37:06;;;;;;;3.40;3.10;;;7.20;99.90;;;;;;5027205;28;20449;-87
2023/11/09 05:39:32;;;;;;;2.50;2.30;;;6.90;99.90;;;;;;5029296;28;20572;-87
2023/11/09 05:41:59;;;;;;;3.33;3.03;;;7.10;99.90;;;;;;5034281;28;20286;-87
2023/11/09 05:44:27;;;;;;;2.97;2.53;;;7.30;99.90;;;;;;5033026;28;20797;-87
2023/11/09 05:46:54;;;;;;;4.57;3.10;;;7.00;99.90;;;;;;5033500;28;20190;-87
2023/11/09 05:49:20;;;;;;;3.40;3.10;;;6.60;99.90;;;;;;5032927;28;20661;-86
2023/11/09 05:51:47;;;;;;;3.77;3.17;;;6.80;99.90;;;;;;5030589;28;20183;-87
2023/11/09 05:54:13;;;;;;;6.00;3.42;;;7.00;99.90;;;;;;5031678;28;20449;-88
2023/11/09 05:56:41;;;;;;;4.77;2.90;;;7.00;99.90;;;;;;5031709;28;20815;-87
2023/11/09 05:59:09;;;;;;;3.40;3.10;;;6.50;99.90;;;;;;5026239;28;20179;-87
2023/11/09 06:01:35;;;;;;;6.97;2.80;;;7.50;99.90;;;;;;5031314;28;20193;-87
2023/11/09 06:04:03;;;;;;;3.40;3.20;;;8.00;99.90;;;;;;5031823;28;20220;-87
2023/11/09 06:06:29;;;;;;;3.42;3.13;;;7.20;99.90;;;;;;5032528;28;20202;-87
2023/11/09 06:08:55;;;;;;;3.47;3.17;;;7.10;99.90;;;;;;5028954;28;20225;-87
2023/11/09 06:11:21;;;;;;;2.97;2.60;;;7.30;99.90;;;;;;5032730;28;20214;-87
2023/11/09 06:13:47;;;;;;;3.60;3.30;;;7.40;99.90;;;;;;5033358;28;20683;-87
2023/11/09 06:16:14;;;;;;;4.38;2.80;;;7.70;99.90;;;;;;5034255;28;20182;-86
2023/11/09 06:18:39;;;;;;;4.05;3.65;;;6.90;99.90;;;;;;5033836;28;20615;-87
2023/11/09 06:21:05;;;;;;;4.77;3.40;;;10.10;99.90;;;;;;5032642;28;20190;-87
2023/11/09 06:23:31;;;;;;;4.80;3.77;;;;;;;;;;5015889;28;20209;-87
2023/11/09 06:25:58;;;;;;;8.60;3.65;;;7.40;99.90;;;;;;5032602;28;20669;-87
2023/11/09 06:28:25;;;;;;;9.32;6.05;;;6.40;99.90;;;;;;5031997;28;20175;-87
2023/11/09 06:30:51;;;;;;;4.13;3.67;;;8.60;99.90;;;;;;5037105;28;20569;-87
2023/11/09 06:33:17;;;;;;;3.40;3.10;;;7.10;99.90;;;;;;5032218;28;20206;-88
2023/11/09 06:35:46;;;;;;;4.05;3.20;;;7.20;99.90;;;;;;5038733;28;20188;-88
2023/11/09 06:38:13;;;;;;;3.70;3.40;;;8.50;99.90;;;;;;5034534;28;20197;-88
2023/11/09 06:40:39;;;;;;;4.28;3.20;;;7.30;99.90;;;;;;5032499;28;20182;-87
2023/11/09 06:43:05;;;;;;;5.28;3.53;;;7.70;99.90;;;;;;5036088;28;20212;-88
2023/11/09 06:45:31;;;;;;;3.40;3.00;;;7.40;99.90;;;;;;5031532;28;20182;-87
2023/11/09 06:47:57;;;;;;;5.32;3.40;;;7.70;99.90;;;;;;5036177;28;20300;-89
2023/11/09 06:50:23;;;;;;;5.88;3.17;;;7.20;99.90;;;;;;5020920;28;20191;-89
2023/11/09 06:52:51;;;;;;;3.35;3.05;;;7.70;99.90;;;;;;5035189;28;20706;-87
2023/11/09 06:55:17;;;;;;;4.75;3.75;;;7.90;99.90;;;;;;5037542;28;20186;-88
2023/11/09 06:57:45;;;;;;;3.37;3.07;;;7.90;99.90;;;;;;5035148;28;20623;-88
2023/11/09 07:00:13;;;;;;;3.42;2.90;;;7.80;99.90;;;;;;5039274;28;20270;-88
2023/11/09 07:02:40;;;;;;;3.72;3.30;;;7.70;99.90;;;;;;5017897;28;20191;-88
2023/11/09 07:05:07;;;;;;;4.68;3.50;;;7.80;99.90;;;;;;5017517;28;20611;-89
2023/11/09 07:07:34;;;;;;;3.65;3.35;;;7.80;99.90;;;;;;5033474;28;20178;-89
2023/11/09 07:10:01;;;;;;;5.03;3.50;;;8.00;99.90;;;;;;5038971;28;20225;-87
2023/11/09 07:12:27;;;;;;;4.45;3.85;;;8.00;99.90;;;;;;5018191;28;20179;-88
2023/11/09 07:14:53;;;;;;;6.15;3.90;;;7.50;99.90;;;;;;5035556;28;20182;-88
2023/11/09 07:17:22;;;;;;;4.40;3.25;;;9.60;99.90;;;;;;5034598;28;20598;-89
2023/11/09 07:19:48;;;;;;;3.53;3.22;;;7.90;99.90;;;;;;5017773;28;20202;-88
2023/11/09 07:22:21;;;;;;;4.60;3.05;;;8.40;99.90;;;;;;5022069;28;20182;-87
2023/11/09 07:24:56;;;;;;;4.10;2.33;;;8.10;99.90;;;;;;5038953;28;20240;-88
2023/11/09 07:27:25;;;;;;;3.78;3.47;;;8.40;99.90;;;;;;5036120;28;20182;-88
2023/11/09 07:29:50;;;;;;;4.05;3.30;;;8.20;99.90;;;;;;5019654;28;20182;-89
2023/11/09 07:32:16;;;;;;;4.87;3.87;;;;;;;;;;5033280;28;20457;-89
2023/11/09 07:34:44;;;;;;;4.30;3.90;;;8.50;99.90;;;;;;5031797;28;20212;-88
2023/11/09 07:37:13;;;;;;;4.18;3.42;;;8.60;99.90;;;;;;5033862;28;20662;-89
2023/11/09 07:39:40;;;;;;;3.72;3.42;;;8.00;99.90;;;;;;5034706;28;20953;-88
2023/11/09 07:42:06;;;;;;;5.70;3.90;;;8.00;99.90;;;;;;5033711;28;20186;-88
2023/11/09 07:44:33;;;;;;;5.65;3.53;;;8.00;99.90;;;;;;5034528;28;20210;-88
2023/11/09 07:47:02;;;;;;;4.55;2.83;;;9.10;99.90;;;;;;5053727;28;20175;-87
2023/11/09 07:49:32;;;;;;;2.60;2.33;;;9.40;99.90;;;;;;5037450;28;20285;-87
2023/11/09 07:52:03;;;;;;;2.28;1.73;;;;;;;;;;5031624;28;20273;-87
2023/11/09 07:54:29;;;;;;;1.60;1.40;;;9.50;99.90;;;;;;5030150;28;20249;-88
2023/11/09 07:56:57;;;;;;;1.60;1.40;;;11.40;99.90;;;;;;5034494;28;20633;-88
2023/11/09 07:59:23;;;;;;;2.78;1.60;;;9.90;99.90;;;;;;5033869;28;20681;-86
2023/11/09 08:01:49;;;;;;;1.67;1.50;;;11.70;99.90;;;;;;5016623;28;20470;-89
2023/11/09 08:04:16;;;;;;;2.78;2.08;;;9.60;99.90;;;;;;5035866;28;20470;-90
2023/11/09 08:06:44;;;;;;;1.75;1.65;;;10.30;99.90;;;;;;5047625;28;20195;-89
2023/11/09 08:09:12;;;;;;;1.60;1.50;;;10.50;99.30;;;;;;5053625;28;20218;-90
2023/11/09 08:11:38;;;;;;;2.10;1.73;;;10.60;99.10;;;;;;5052613;28;20267;-88
2023/11/09 08:14:04;;;;;;;2.23;2.00;;;10.30;99.00;;;;;;5039001;28;20213;-89
2023/11/09 08:16:31;;;;;;;2.40;1.80;;;10.70;98.60;;;;;;5048527;28;20437;-89
2023/11/09 08:18:57;;;;;;;2.83;2.03;;;11.00;98.70;;;;;;5042148;28;20418;-91
2023/11/09 08:21:25;;;;;;;3.53;2.50;;;10.70;97.60;;;;;;5053549;28;20194;-91
2023/11/09 08:24:15;;;;;;;2.92;2.30;;;10.60;97.80;;;;;;5064036;23;20515;-90
2023/11/09 08:26:50;;;;;;;2.15;1.95;;;10.70;97.70;;;;;;5045020;28;20201;-91
2023/11/09 08:29:16;;;;;;;1.88;1.67;;;10.40;97.90;;;;;;5038485;28;20186;-91
2023/11/09 08:31:42;;;;;;;2.53;2.07;;;;;;;;;;5036164;28;20186;-91
2023/11/09 08:34:07;;;;;;;2.60;1.77;;;10.80;96.70;;;;;;5035002;28;20222;-91
2023/11/09 08:36:33;;;;;;;2.53;1.93;;;10.80;97.10;;;;;;5034300;28;20210;-90
2023/11/09 08:39:01;;;;;;;2.80;1.80;;;11.40;96.90;;;;;;5038416;28;20176;-91
2023/11/09 08:41:27;;;;;;;2.15;1.80;;;12.10;97.10;;;;;;5035520;28;20195;-91
2023/11/09 08:43:52;;;;;;;2.43;1.90;;;10.90;96.10;;;;;;5033501;28;20618;-90
2023/11/09 08:46:18;;;;;;;2.50;2.17;;;11.00;96.10;;;;;;5022307;28;20209;-91
2023/11/09 08:48:43;;;;;;;2.60;2.07;;;11.20;96.10;;;;;;5034289;28;20664;-91
2023/11/09 08:51:13;;;;;;;2.20;2.00;;;11.50;96.10;;;;;;5032804;28;20219;-89
2023/11/09 08:53:40;;;;;;;2.17;2.05;;;10.90;96.10;;;;;;5032464;28;20197;-90
2023/11/09 08:56:06;;;;;;;3.90;2.40;;;11.20;95.70;;;;;;5050698;28;20282;-89
2023/11/09 08:58:36;;;;;;;2.10;1.90;;;11.10;96.00;;;;;;5039719;28;20621;-91
2023/11/09 09:01:04;;;;;;;2.35;2.15;;;11.70;96.10;;;;;;5037161;28;20958;-90
2023/11/09 09:03:32;;;;;;;3.60;2.10;;;11.10;95.40;;;;;;5046018;28;20215;-90
2023/11/09 09:05:59;;;;;;;1.85;1.65;;;11.60;95.70;;;;;;5059574;28;20206;-90
2023/11/09 09:08:26;;;;;;;1.63;1.52;;;11.20;95.60;;;;;;5047288;28;20255;-89
2023/11/09 09:10:56;;;;;;;2.20;2.00;;;11.30;95.40;;;;;;5041702;28;20293;-89
2023/11/09 09:13:33;;;;;;;2.00;1.80;;;11.40;95.40;;;;;;5006764;28;20209;-88
2023/11/09 09:16:00;;;;;;;3.70;1.98;;;11.60;96.20;;;;;;5041019;28;20217;-92
2023/11/09 09:18:25;;;;;;;2.85;1.73;;;11.50;96.00;;;;;;5032509;28;20596;-93
2023/11/09 09:21:14;;;;;;;1.80;1.70;;;11.30;95.30;;;;;;5026529;28;20259;-90
2023/11/09 09:23:51;;;;;;;2.70;2.25;;;10.90;95.00;;;;;;5055767;28;20305;-88
2023/11/09 09:29:42;;;;;;;3.45;1.90;;;11.60;95.40;;;;;;5052255;28;20252;-89
2023/11/09 09:32:20;;;;;;;2.90;1.70;;;9.90;97.20;;;;;;5037402;28;20906;-88
2023/11/09 09:38:05;;;;;;;;;;;;;;;;;;;;;
2023/11/09 09:40:32;;;;;;;2.15;1.95;;;;;;;;;;5011696;28;20190;-90
2023/11/09 09:42:58;;;;;;;2.63;1.60;;;11.60;95.50;;;;;;5039078;28;20272;-89
2023/11/09 09:45:32;;;;;;;2.05;1.48;;;11.50;95.60;;;;;;5035517;28;20266;-91
2023/11/09 09:48:00;;;;;;;3.35;1.90;;;13.60;96.50;;;;;;5054453;28;20191;-90
2023/11/09 09:50:29;;;;;;;3.30;1.90;;;11.80;95.50;;;;;;5051274;28;20196;-88
2023/11/09 09:52:56;;;;;;;2.33;1.50;;;11.80;95.40;;;;;;5037543;28;20216;-94
2023/11/09 09:55:26;;;;;;;2.00;1.80;;;12.10;95.50;;;;;;5049465;28;20185;-93
2023/11/09 09:57:52;;;;;;;2.95;1.67;;;11.80;95.20;;;;;;5044090;28;20186;-92
2023/11/09 10:00:26;;;;;;;2.00;1.60;;;11.90;95.20;;;;;;5057218;28;20631;-92
2023/11/09 10:02:55;;;;;;;1.80;1.40;;;12.20;95.20;;;;;;5037813;28;20232;-91
2023/11/09 10:05:24;;;;;;;3.35;1.40;;;12.10;95.20;;;;;;5041136;28;20191;-90
2023/11/09 10:08:03;;;;;;;1.45;1.35;;;11.90;94.90;;;;;;5041140;28;20223;-89
2023/11/09 10:10:33;;;;;;;1.65;1.55;;;12.00;95.30;;;;;;5057937;28;20178;-90
2023/11/09 10:13:00;;;;;;;3.15;1.40;;;12.30;95.40;;;;;;5050682;28;20320;-90
2023/11/09 10:15:26;;;;;;;1.50;1.40;;;12.30;95.30;;;;;;5053805;28;20200;-91
2023/11/09 10:17:53;;;;;;;1.30;1.20;;;12.30;95.40;;;;;;5057004;28;20177;-91
2023/11/09 10:20:20;;;;;;;3.28;1.42;;;12.60;95.50;;;;;;5053807;28;20185;-91
2023/11/09 10:22:47;;;;;;;1.50;1.23;;;12.40;95.00;;;;;;5043245;28;20178;-90
2023/11/09 10:25:14;;;;;;;1.70;1.30;;;12.90;95.60;;;;;;5035559;28;20181;-87
2023/11/09 10:27:39;;;;;;;2.78;1.63;;;12.40;95.40;;;;;;5035180;28;20189;-87
2023/11/09 10:30:06;;;;;;;1.40;1.30;;;12.60;95.40;;;;;;5034210;28;20236;-87
2023/11/09 10:32:35;;;;;;;1.77;1.10;;;12.60;95.50;;;;;;5034874;28;20193;-87
2023/11/09 10:35:04;;;;;;;3.03;1.02;;;12.60;95.80;;;;;;5034824;28;20253;-88
2023/11/09 10:37:33;;;;;;;1.20;1.10;;;12.70;96.10;;;;;;5035120;28;20219;-88
2023/11/09 10:40:01;;;;;;;2.88;1.50;;;13.20;96.50;;;;;;5035702;28;20180;-88
2023/11/09 10:42:29;;;;;;;2.75;1.20;;;12.60;96.20;;;;;;5037371;28;20197;-88
2023/11/09 10:44:57;;;;;;;3.22;1.10;;;12.00;96.20;;;;;;5066674;28;20209;-87
2023/11/09 10:47:24;;;;;;;1.15;1.00;;;13.00;96.60;;;;;;5036619;28;20181;-89
2023/11/09 10:49:55;;;;;;;1.27;0.80;;;13.00;96.50;;;;;;5033403;28;20555;-89
2023/11/09 10:52:21;;;;;;;1.25;0.98;;;13.00;96.40;;;;;;5033561;28;20192;-89
2023/11/09 10:54:55;;;;;;;2.00;1.00;;;12.80;96.30;;;;;;5034287;28;20209;-89
2023/11/09 10:57:21;;;;;;;1.15;1.05;;;13.20;96.50;;;;;;5034421;28;20643;-89
2023/11/09 10:59:50;;;;;;;1.15;1.00;;;12.80;96.60;;;;;;5033405;28;20177;-89
2023/11/09 11:02:27;;;;;;;2.50;1.23;;;12.90;96.60;;;;;;5029851;28;20182;-89
2023/11/09 11:04:57;;;;;;;1.42;1.08;;;13.20;96.90;;;;;;5034155;28;20216;-88
2023/11/09 11:07:29;;;;;;;1.35;0.90;;;12.90;96.80;;;;;;5031901;28;20216;-89
2023/11/09 11:09:56;;;;;;;1.45;1.35;;;12.80;96.80;;;;;;5030575;28;20243;-84
2023/11/09 11:12:25;;;;;;;2.58;1.00;;;13.30;96.80;;;;;;5034299;28;20511;-86
2023/11/09 11:14:54;;;;;;;1.45;1.08;;;13.40;96.60;;;;;;5041059;28;20206;-89
2023/11/09 11:17:28;;;;;;;1.60;1.10;;;13.90;96.50;;;;;;5060001;28;20654;-89
2023/11/09 11:20:09;;;;;;;1.48;0.95;;;13.70;95.90;;;;;;5042828;28;20189;-89
2023/11/09 11:22:57;;;;;;;1.92;1.40;;;13.80;95.70;;;;;;5038673;28;20261;-89
2023/11/09 11:25:41;;;;;;;1.42;1.05;;;13.90;95.50;;;;;;5038898;28;20457;-90
2023/11/09 11:28:11;;;;;;;1.15;1.00;;;13.80;95.60;;;;;;5037714;28;20274;-89
2023/11/09 11:30:40;;;;;;;1.40;0.90;;;13.40;95.60;;;;;;5035663;28;20243;-88
2023/11/09 11:33:12;;;;;;;1.23;0.93;;;13.50;95.80;;;;;;5040898;28;20228;-88
2023/11/09 11:35:53;;;;;;;1.35;1.05;;;13.70;95.80;;;;;;5042273;28;20567;-89
2023/11/09 11:38:24;;;;;;;1.30;1.05;;;13.70;96.00;;;;;;5037109;28;20185;-89
2023/11/09 11:41:00;;;;;;;1.10;0.88;;;13.60;95.60;;;;;;5032358;28;20193;-90
2023/11/09 11:43:39;;;;;;;0.80;0.80;;;13.60;95.90;;;;;;5037856;28;20666;-90
2023/11/09 11:46:15;;;;;;;2.05;1.20;;;13.60;96.10;;;;;;5037579;28;20215;-89
2023/11/09 11:48:42;;;;;;;1.25;1.13;;;13.70;96.10;;;;;;5037065;28;20579;-89
2023/11/09 11:51:09;;;;;;;1.25;1.10;;;14.10;96.10;;;;;;5035596;28;20713;-88
2023/11/09 11:53:39;;;;;;;1.95;0.82;;;13.50;96.30;;;;;;5033316;28;20205;-89
2023/11/09 11:56:12;;;;;;;1.90;1.05;;;13.50;95.80;;;;;;5037219;28;20234;-89
2023/11/09 11:58:52;;;;;;;0.90;0.80;;;13.90;96.20;;;;;;5038723;28;20177;-87
2023/11/09 12:01:23;;;;;;;2.45;1.33;;;13.50;96.00;;;;;;5034451;28;20777;-87
2023/11/09 12:03:52;;;;;;;1.38;1.27;;;13.80;96.30;;;;;;5032991;28;20258;-88
2023/11/09 12:06:20;;;;;;;1.10;1.00;;;13.60;96.10;;;;;;5031797;28;20184;-87
2023/11/09 12:08:48;;;;;;;1.25;0.90;;;13.60;96.10;;;;;;5041279;28;20193;-87
2023/11/09 12:11:14;;;;;;;0.88;0.80;;;13.70;96.00;;;;;;5032248;28;20231;-86
2023/11/09 12:13:41;;;;;;;2.40;0.90;;;13.90;96.00;;;;;;5032136;28;20611;-87
2023/11/09 12:16:09;;;;;;;1.60;0.70;;;14.30;96.20;;;;;;5033527;28;20204;-87
2023/11/09 12:18:34;;;;;;;1.15;0.90;;;13.90;95.90;;;;;;5033940;28;20265;-87
2023/11/09 12:21:02;;;;;;;1.17;0.80;;;13.90;96.10;;;;;;5030108;28;20328;-87
2023/11/09 12:23:29;;;;;;;1.40;0.70;;;14.50;96.10;;;;;;5033268;28;20212;-86
2023/11/09 12:25:55;;;;;;;0.93;0.82;;;14.50;95.90;;;;;;5033780;28;20181;-87
2023/11/09 12:28:22;;;;;;;1.50;1.20;;;14.30;95.60;;;;;;5037228;28;20636;-88
2023/11/09 12:30:48;;;;;;;1.20;1.08;;;14.80;95.70;;;;;;5034176;28;20268;-88
2023/11/09 12:33:14;;;;;;;1.47;0.60;;;14.70;95.50;;;;;;5036481;28;20236;-90
2023/11/09 12:36:02;;;;;;;1.00;0.90;;;14.90;95.20;;;;;;5037906;28;20910;-89
2023/11/09 12:38:28;;;;;;;0.80;0.60;;;14.50;95.00;;;;;;5037213;28;20224;-88
2023/11/09 12:40:54;;;;;;;3.08;0.60;;;14.60;94.40;;;;;;5039697;28;20264;-90
2023/11/09 12:43:30;;;;;;;1.15;1.00;;;14.70;94.80;;;;;;5037586;28;20824;-88
2023/11/09 12:46:11;;;;;;;0.70;0.60;;;14.70;94.90;;;;;;5038929;28;20185;-86
2023/11/09 12:48:44;;;;;;;0.68;0.60;;;14.60;94.40;;;;;;5037836;28;20185;-88
2023/11/09 12:51:12;;;;;;;1.00;0.68;;;14.80;94.10;;;;;;5035803;28;20185;-87
2023/11/09 12:53:40;;;;;;;0.68;0.60;;;14.80;93.80;;;;;;5046350;28;20209;-87
2023/11/09 12:56:06;;;;;;;0.70;0.60;;;14.80;94.10;;;;;;5036764;28;20189;-86
2023/11/09 12:58:35;;;;;;;0.85;0.85;;;14.50;94.40;;;;;;5036861;28;20246;-86
2023/11/09 13:01:03;;;;;;;0.70;0.60;;;14.50;94.30;;;;;;5034829;28;20217;-86
2023/11/09 13:03:30;;;;;;;1.35;0.88;;;14.90;94.40;;;;;;5036134;28;20209;-87
2023/11/09 13:06:08;;;;;;;1.02;0.80;;;15.20;94.60;;;;;;5033723;28;20548;-87
2023/11/09 13:08:34;;;;;;;1.33;0.70;;;14.20;94.00;;;;;;5036075;28;20541;-87
2023/11/09 13:11:02;;;;;;;1.00;0.60;;;14.90;94.50;;;;;;5037381;28;20212;-88
2023/11/09 13:13:33;;;;;;;1.55;0.80;;;14.80;94.50;;;;;;5034701;28;20274;-88
2023/11/09 13:16:05;;;;;;;1.00;0.80;;;14.90;95.20;;;;;;5036734;28;20189;-88
2023/11/09 13:18:30;;;;;;;0.70;0.60;;;14.50;95.00;;;;;;5035529;28;20293;-88
2023/11/09 13:20:57;;;;;;;0.97;0.70;;;14.80;94.80;;;;;;5035258;28;20296;-88
2023/11/09 13:23:32;;;;;;;1.23;0.75;;;14.90;95.00;;;;;;5047130;28;20212;-88